Main page
METAR-TAF:

METAR-TAF

Airports :

Ekofisk, Norway

Oil platform

latitude: 56-33N, longitude: 003-15E, elevation: 3 m

Current weather observation

The report was made 45 minutes ago, at 20:20 UTC
Wind 15 kt from the West
Temperature 4°C
Humidity 75%
Pressure 1001 hPa
Visibility 10 km or more
Few clouds at a height of 1500 ft, Cumulonimbus.
Scattered clouds at a height of 3000 ft
Broken clouds at a height of 7000 ft
showers in vicinity

METAR: ENLE 202020Z 28015KT 9999 VCSH FEW015CB SCT030 BKN070 04/00 Q1001 W07/S4

Time: 22:05 (21:05 UTC)

Forecast

The report was made 1 hour and 5 minutes ago, at 20:00 UTC
Forecast valid from 20 at 21 UTC to 21 at 06 UTC
Wind 15 kt from the North
Visibility 10 km or more
Few clouds at a height of 1500 ft, Cumulonimbus.
Scattered clouds at a height of 3500 ft
light rain showers

TAF: ENLE 202000Z 2021/2106 35015KT 9999 -SHRA FEW015CB SCT035

Weather observations and forecasts of more than 4000 airports (METAR and TAF reports).

The available stations are represented by yellow and red dots on the map.

Hover mouse over dot to see the name of the station.

Then click to see weather observations and forecasts.

To change the map : click on the green buttons with a black cross to zoom in, on the green button with a dash to zoom out, or on the green arrows for adjacent maps.


METAR-TAF: